Time;durP1;ratioP1;P1;durP2;ratioP2;P2;SDS_P1;SDS_P2;PMS_P1;PMS_P2;Temp;Humidity;BMP_temperature;BMP_pressure;BME280_temperature;BME280_humidity;BME280_pressure;Samples;Min_cycle;Max_cycle;Signal;HPM_P1;HPM_P2
2022/06/16 00:00:17;;;;;;;;;;;15.60;99.90;;;;;;5093174;28;19916;-79
2022/06/16 00:02:44;;;;;;;;;;;15.50;99.90;;;;;;5083915;28;19916;-80
2022/06/16 00:05:11;;;;;;;;;;;15.50;99.90;;;;;;5079075;28;20300;-79
2022/06/16 00:07:37;;;;;;;;;;;15.40;99.90;;;;;;5076952;28;19959;-81
2022/06/16 00:10:03;;;;;;;;;;;15.30;99.90;;;;;;5066282;28;20323;-79
2022/06/16 00:12:29;;;;;;;;;;;15.30;99.90;;;;;;5087612;28;19920;-80
2022/06/16 00:14:54;;;;;;;;;;;15.20;99.90;;;;;;5073420;28;19918;-79
2022/06/16 00:17:20;;;;;;;;;;;15.20;99.90;;;;;;5077701;28;19962;-77
2022/06/16 00:19:45;;;;;;;;;;;15.10;99.90;;;;;;5095676;28;20284;-79
2022/06/16 00:22:11;;;;;;;;;;;15.10;99.90;;;;;;5095540;28;19999;-79
2022/06/16 00:24:36;;;;;;;;;;;15.00;99.90;;;;;;5092631;28;19919;-79
2022/06/16 00:27:02;;;;;;;;;;;14.90;99.90;;;;;;5079236;28;19927;-79
2022/06/16 00:29:28;;;;;;;;;;;14.80;99.90;;;;;;5061151;28;20242;-78
2022/06/16 00:31:53;;;;;;;;;;;14.70;99.90;;;;;;5082764;28;19919;-79
2022/06/16 00:34:19;;;;;;;;;;;14.70;99.90;;;;;;5095537;28;19943;-73
2022/06/16 00:36:45;;;;;;;;;;;14.70;99.90;;;;;;5087151;28;19936;-73
2022/06/16 00:39:10;;;;;;;;;;;14.60;99.90;;;;;;5084667;28;19947;-78
2022/06/16 00:41:36;;;;;;;;;;;14.50;99.90;;;;;;5083571;28;20222;-74
2022/06/16 00:44:02;;;;;;;;;;;14.50;99.90;;;;;;5076872;28;19922;-74
2022/06/16 00:46:30;;;;;;;;;;;14.40;99.90;;;;;;5090934;28;19993;-73
2022/06/16 00:48:58;;;;;;;;;;;14.50;99.90;;;;;;5077985;28;20299;-73
2022/06/16 00:51:24;;;;;;;;;;;14.40;99.90;;;;;;5089109;28;19912;-73
2022/06/16 00:53:51;;;;;;;;;;;14.40;99.90;;;;;;5079827;28;19999;-73
2022/06/16 00:56:18;;;;;;;;;;;14.40;99.90;;;;;;5083215;28;19908;-73
2022/06/16 00:58:46;;;;;;;;;;;14.40;99.90;;;;;;5083815;28;19918;-73
2022/06/16 01:01:13;;;;;;;;;;;14.30;99.90;;;;;;5095219;28;20313;-73
2022/06/16 01:06:25;;;;;;;;;;;14.20;99.90;;;;;;5078457;28;20360;-73
2022/06/16 01:08:52;;;;;;;;;;;14.10;99.90;;;;;;5083182;28;19959;-73
2022/06/16 01:14:45;;;;;;;;;;;14.00;99.90;;;;;;5094660;28;19928;-73
2022/06/16 01:17:21;;;;;;;;;;;13.90;99.90;;;;;;5094287;28;19965;-73
2022/06/16 01:20:05;;;;;;;;;;;13.80;99.90;;;;;;5087856;28;20003;-74
2022/06/16 01:22:30;;;;;;;;;;;13.70;99.90;;;;;;5082553;28;19924;-73
2022/06/16 01:25:05;;;;;;;;;;;13.50;99.90;;;;;;5078720;28;19915;-73
2022/06/16 01:27:30;;;;;;;;;;;13.50;99.90;;;;;;5080711;28;20258;-73
2022/06/16 01:30:02;;;;;;;;;;;13.40;99.90;;;;;;5056661;28;19958;-73
2022/06/16 01:32:36;;;;;;;;;;;13.40;99.90;;;;;;5092298;28;19958;-73
2022/06/16 01:35:16;;;;;;;;;;;13.30;99.90;;;;;;5093319;28;19972;-73
2022/06/16 01:37:55;;;;;;;;;;;13.30;99.90;;;;;;5097818;28;20358;-73
2022/06/16 01:40:30;;;;;;;;;;;13.20;99.90;;;;;;5087364;28;19927;-73
2022/06/16 01:42:56;;;;;;;;;;;13.20;99.90;;;;;;5082817;28;19951;-73
2022/06/16 01:45:31;;;;;;;;;;;13.20;99.90;;;;;;5085160;28;19956;-73
2022/06/16 01:47:58;;;;;;;;;;;13.00;99.90;;;;;;5075917;28;19945;-73
2022/06/16 01:50:32;;;;;;;;;;;12.80;99.90;;;;;;5090659;28;19921;-73
2022/06/16 01:53:02;;;;;;;;;;;12.70;99.90;;;;;;5090451;28;19913;-73
2022/06/16 01:55:30;;;;;;;;;;;12.50;99.90;;;;;;5089830;28;20200;-73
2022/06/16 01:58:07;;;;;;;;;;;12.50;99.90;;;;;;5095786;28;20062;-73
2022/06/16 02:00:33;;;;;;;;;;;12.40;99.90;;;;;;5095875;28;19931;-73
2022/06/16 02:03:07;;;;;;;;;;;12.40;99.90;;;;;;5087474;28;19912;-73
2022/06/16 02:05:32;;;;;;;;;;;12.30;99.90;;;;;;5085877;28;19913;-73
2022/06/16 02:08:03;;;;;;;;;;;12.20;99.90;;;;;;5069298;28;19923;-73
2022/06/16 02:10:32;;;;;;;;;;;12.10;99.90;;;;;;5076777;28;20013;-73
2022/06/16 02:12:58;;;;;;;;;;;12.20;99.90;;;;;;5066377;28;20613;-73
2022/06/16 02:15:30;;;;;;;;;;;12.20;99.90;;;;;;5074974;28;19920;-73
2022/06/16 02:17:57;;;;;;;;;;;12.20;99.90;;;;;;5090149;28;20009;-73
2022/06/16 02:20:27;;;;;;;;;;;12.10;99.90;;;;;;5061123;28;19966;-72
2022/06/16 02:22:52;;;;;;;;;;;12.10;99.90;;;;;;5077108;28;19948;-72
2022/06/16 02:25:18;;;;;;;;;;;12.00;99.90;;;;;;5078150;28;20263;-78
2022/06/16 02:27:43;;;;;;;;;;;12.00;99.90;;;;;;5096441;28;20003;-77
2022/06/16 02:30:10;;;;;;;;;;;11.90;99.90;;;;;;5085083;28;19939;-77
2022/06/16 02:33:14;;;;;;;;;;;11.90;99.90;;;;;;5085577;28;19916;-77
2022/06/16 02:35:48;;;;;;;;;;;11.80;99.90;;;;;;5013807;28;20198;-78
2022/06/16 02:38:17;;;;;;;;;;;11.90;99.90;;;;;;4999515;28;20264;-77
2022/06/16 02:40:55;;;;;;;;;;;12.00;99.90;;;;;;5013951;28;20264;-78
2022/06/16 02:43:26;;;;;;;;;;;11.80;99.90;;;;;;5001055;28;19920;-77
2022/06/16 02:46:04;;;;;;;;;;;11.70;99.90;;;;;;4993145;28;19960;-78
2022/06/16 02:48:37;;;;;;;;;;;11.60;99.90;;;;;;4995826;28;19920;-78
2022/06/16 02:51:09;;;;;;;;;;;11.50;99.90;;;;;;4995307;28;19925;-77
2022/06/16 02:56:18;;;;;;;;;;;11.60;99.90;;;;;;4996831;28;19922;-78
2022/06/16 02:58:44;;;;;;;;;;;11.50;99.90;;;;;;4989805;28;20007;-76
2022/06/16 03:01:10;;;;;;;;;;;11.40;99.90;;;;;;4994821;28;19909;-79
2022/06/16 03:03:36;;;;;;;;;;;11.20;99.90;;;;;;5003170;28;19918;-78
2022/06/16 03:06:03;;;;;;;;;;;11.10;99.90;;;;;;5028376;28;20290;-78
2022/06/16 03:08:29;;;;;;;;;;;11.10;99.90;;;;;;5069361;28;19927;-78
2022/06/16 03:10:58;;;;;;;;;;;11.00;99.90;;;;;;5092298;28;20392;-78
2022/06/16 03:13:25;;;;;;;;;;;11.10;99.90;;;;;;5071230;28;20007;-77
2022/06/16 03:15:52;;;;;;;;;;;11.10;99.90;;;;;;5082575;28;19917;-78
2022/06/16 03:18:18;;;;;;;;;;;11.10;99.90;;;;;;5082320;28;19931;-78
2022/06/16 03:20:43;;;;;;;;;;;11.20;99.90;;;;;;5074929;28;20022;-77
2022/06/16 03:23:09;;;;;;;;;;;11.20;99.90;;;;;;5064350;28;19955;-78
2022/06/16 03:25:35;;;;;;;;;;;11.30;99.90;;;;;;5068932;28;19921;-77
2022/06/16 03:28:01;;;;;;;;;;;11.40;99.90;;;;;;5084726;28;19962;-78
2022/06/16 03:30:26;;;;;;;;;;;11.40;99.90;;;;;;5049776;28;19912;-77
2022/06/16 03:32:52;;;;;;;;;;;11.40;99.90;;;;;;5086898;28;19920;-78
2022/06/16 03:35:18;;;;;;;;;;;11.40;99.90;;;;;;5087644;28;19949;-78
2022/06/16 03:37:43;;;;;;;;;;;11.30;99.90;;;;;;5094292;28;19916;-78
2022/06/16 03:40:11;;;;;;;;;;;11.40;99.90;;;;;;5090098;28;20006;-78
2022/06/16 03:42:37;;;;;;;;;;;11.40;99.90;;;;;;5075738;28;19916;-78
2022/06/16 03:45:03;;;;;;;;;;;11.50;99.90;;;;;;5060529;28;19946;-78
2022/06/16 03:47:28;;;;;;;;;;;11.60;99.90;;;;;;5093421;28;20287;-79
2022/06/16 03:49:54;;;;;;;;;;;11.60;99.90;;;;;;5090644;28;19999;-78
2022/06/16 03:52:19;;;;;;;;;;;11.70;99.90;;;;;;5092454;28;19955;-78
2022/06/16 03:54:46;;;;;;;;;;;11.80;99.90;;;;;;5087288;28;19916;-78
2022/06/16 03:57:12;;;;;;;;;;;11.80;99.90;;;;;;5091738;28;19916;-77
2022/06/16 03:59:38;;;;;;;;;;;11.80;99.90;;;;;;5068075;28;19912;-78
2022/06/16 04:02:03;;;;;;;;;;;11.90;99.90;;;;;;5063559;28;19916;-78
2022/06/16 04:04:29;;;;;;;;;;;11.90;99.90;;;;;;5092775;28;19920;-78
2022/06/16 04:06:54;;;;;;;;;;;12.10;99.90;;;;;;5074123;28;19912;-77
2022/06/16 04:09:20;;;;;;;;;;;12.10;99.90;;;;;;5091310;28;19913;-78
2022/06/16 04:11:46;;;;;;;;;;;12.10;99.90;;;;;;5076154;28;19919;-77
2022/06/16 04:14:12;;;;;;;;;;;11.90;99.90;;;;;;5088617;28;20227;-77
2022/06/16 04:16:42;;;;;;;;;;;11.90;99.90;;;;;;5067808;28;19916;-77
2022/06/16 04:19:09;;;;;;;;;;;11.70;99.90;;;;;;5074148;28;20027;-77
2022/06/16 04:21:39;;;;;;;;;;;11.50;99.90;;;;;;5086907;28;20375;-77
2022/06/16 04:24:04;;;;;;;;;;;11.50;99.90;;;;;;5070757;28;20261;-78
2022/06/16 04:26:30;;;;;;;;;;;11.50;99.90;;;;;;5070867;28;19912;-77
2022/06/16 04:28:56;;;;;;;;;;;11.60;99.90;;;;;;5071840;28;19912;-77
2022/06/16 04:31:21;;;;;;;;;;;11.70;99.90;;;;;;5074391;28;20003;-78
2022/06/16 04:33:47;;;;;;;;;;;11.80;99.90;;;;;;5084964;28;19912;-78
2022/06/16 04:36:13;;;;;;;;;;;11.90;99.90;;;;;;5088494;28;20490;-77
2022/06/16 04:38:39;;;;;;;;;;;12.10;99.90;;;;;;5091535;28;19915;-77
2022/06/16 04:41:05;;;;;;;;;;;12.10;99.90;;;;;;5087815;28;20260;-78
2022/06/16 04:43:30;;;;;;;;;;;12.10;99.90;;;;;;5073536;28;20017;-78
2022/06/16 04:45:57;;;;;;;;;;;12.20;99.90;;;;;;5093844;28;19933;-79
2022/06/16 04:48:23;;;;;;;;;;;12.20;99.90;;;;;;5065372;28;20003;-78
2022/06/16 04:50:48;;;;;;;;;;;12.20;99.90;;;;;;5076223;28;19920;-78
2022/06/16 04:53:14;;;;;;;;;;;12.30;99.90;;;;;;5036561;28;19913;-78
2022/06/16 04:55:39;;;;;;;;;;;12.40;99.90;;;;;;5090312;28;19916;-79
2022/06/16 04:58:05;;;;;;;;;;;12.60;99.90;;;;;;5083088;28;19908;-78
2022/06/16 05:00:31;;;;;;;;;;;12.70;99.90;;;;;;5074002;28;22310;-77
2022/06/16 05:02:57;;;;;;;;;;;12.70;99.90;;;;;;4989207;28;19951;-78
2022/06/16 05:05:23;;;;;;;;;;;12.80;99.90;;;;;;4989214;28;20508;-78
2022/06/16 05:07:48;;;;;;;;;;;12.80;99.90;;;;;;4985132;28;19920;-78
2022/06/16 05:10:14;;;;;;;;;;;13.00;99.90;;;;;;4986723;28;19967;-78
2022/06/16 05:12:40;;;;;;;;;;;13.10;99.90;;;;;;4988372;28;21157;-78
2022/06/16 05:15:06;;;;;;;;;;;13.20;99.90;;;;;;4985722;28;19931;-77
2022/06/16 05:17:32;;;;;;;;;;;13.30;99.90;;;;;;4967786;28;20050;-75
2022/06/16 05:19:57;;;;;;;;;;;13.50;99.90;;;;;;4966767;28;20013;-76
2022/06/16 05:22:24;;;;;;;;;;;13.70;99.90;;;;;;4967070;28;20645;-77
2022/06/16 05:24:50;;;;;;;;;;;13.80;99.90;;;;;;4985315;28;20307;-74
2022/06/16 05:27:15;;;;;;;;;;;14.00;99.90;;;;;;4989768;28;19923;-77
2022/06/16 05:29:42;;;;;;;;;;;14.10;99.90;;;;;;4984331;28;21471;-78
2022/06/16 05:32:08;;;;;;;;;;;14.10;99.90;;;;;;5053444;28;19961;-77
2022/06/16 05:34:34;;;;;;;;;;;14.20;99.90;;;;;;5092359;28;19912;-76
2022/06/16 05:37:00;;;;;;;;;;;14.30;99.90;;;;;;5086901;28;19912;-77
2022/06/16 05:39:26;;;;;;;;;;;14.50;99.90;;;;;;5072865;28;19919;-77
2022/06/16 05:41:51;;;;;;;;;;;14.50;99.90;;;;;;5068160;28;19915;-77
2022/06/16 05:44:17;;;;;;;;;;;14.60;99.90;;;;;;5085353;28;19966;-78
2022/06/16 05:46:42;;;;;;;;;;;14.70;99.90;;;;;;5081679;28;19912;-77
2022/06/16 05:49:10;;;;;;;;;;;14.80;99.90;;;;;;5094376;28;19921;-77
2022/06/16 05:51:37;;;;;;;;;;;14.80;99.90;;;;;;5091784;28;20368;-77
2022/06/16 05:54:03;;;;;;;;;;;14.90;99.90;;;;;;5092187;28;19927;-78
2022/06/16 05:56:28;;;;;;;;;;;15.10;99.90;;;;;;5088344;28;19916;-77
2022/06/16 05:58:54;;;;;;;;;;;15.20;99.90;;;;;;5102803;28;19908;-77
2022/06/16 06:01:19;;;;;;;;;;;15.20;99.90;;;;;;5076905;28;20380;-77
2022/06/16 06:03:45;;;;;;;;;;;15.30;99.90;;;;;;5076674;28;20000;-77
2022/06/16 06:06:10;;;;;;;;;;;15.30;99.90;;;;;;5077551;28;19957;-78
2022/06/16 06:17:04;;;;;;;;;;;15.40;99.90;;;;;;5087806;28;19998;-78
2022/06/16 06:19:31;;;;;;;;;;;15.50;99.90;;;;;;5097910;28;19991;-77
2022/06/16 06:22:00;;;;;;;;;;;15.60;99.90;;;;;;5068161;28;19932;-77
2022/06/16 06:24:27;;;;;;;;;;;15.60;99.90;;;;;;5075872;28;19920;-78
2022/06/16 06:26:53;;;;;;;;;;;15.60;99.90;;;;;;5074620;28;20336;-75
2022/06/16 06:29:19;;;;;;;;;;;15.70;99.90;;;;;;5096057;28;19923;-77
2022/06/16 06:31:44;;;;;;;;;;;15.70;99.90;;;;;;4998530;28;20855;-78
2022/06/16 06:34:10;;;;;;;;;;;15.80;99.90;;;;;;4985649;28;20007;-77
2022/06/16 06:36:35;;;;;;;;;;;15.90;99.90;;;;;;4982155;28;19998;-76
2022/06/16 06:39:01;;;;;;;;;;;15.90;99.90;;;;;;4983074;28;19945;-78
2022/06/16 06:41:27;;;;;;;;;;;15.90;99.90;;;;;;4984234;28;20251;-76
2022/06/16 06:43:52;;;;;;;;;;;16.00;99.90;;;;;;4981330;28;19916;-76
2022/06/16 06:46:18;;;;;;;;;;;16.00;99.90;;;;;;4985081;28;20089;-76
2022/06/16 06:48:44;;;;;;;;;;;16.10;99.90;;;;;;4962399;28;19960;-76
2022/06/16 06:51:10;;;;;;;;;;;16.00;99.90;;;;;;4982486;28;19965;-75
2022/06/16 06:53:35;;;;;;;;;;;16.00;99.90;;;;;;4966025;28;20989;-78
2022/06/16 06:56:01;;;;;;;;;;;16.00;99.90;;;;;;4987654;28;19916;-78
2022/06/16 06:58:26;;;;;;;;;;;16.10;99.90;;;;;;5015534;28;19923;-77
2022/06/16 07:00:56;;;;;;;;;;;16.20;99.90;;;;;;5084571;28;19958;-77
2022/06/16 07:03:21;;;;;;;;;;;16.30;99.90;;;;;;5059360;28;19919;-78
2022/06/16 07:05:47;;;;;;;;;;;16.30;99.90;;;;;;5077947;28;20277;-77
2022/06/16 07:08:13;;;;;;;;;;;16.40;99.90;;;;;;5077595;28;19947;-77
2022/06/16 07:10:40;;;;;;;;;;;16.30;99.90;;;;;;5077594;28;20291;-77
2022/06/16 07:13:05;;;;;;;;;;;16.40;99.90;;;;;;5076987;28;19924;-77
2022/06/16 07:15:31;;;;;;;;;;;16.50;99.90;;;;;;5084571;28;19965;-77
2022/06/16 07:17:57;;;;;;;;;;;16.50;99.90;;;;;;5078589;28;20200;-78
2022/06/16 07:20:22;;;;;;;;;;;16.60;99.90;;;;;;5080561;28;19994;-77
2022/06/16 07:22:48;;;;;;;;;;;16.60;99.90;;;;;;5083654;28;19964;-77
2022/06/16 07:25:14;;;;;;;;;;;16.70;99.90;;;;;;5096005;28;19912;-78
2022/06/16 07:27:40;;;;;;;;;;;16.80;99.90;;;;;;5089926;28;19950;-77
2022/06/16 07:30:14;;;;;;;;;;;17.00;99.90;;;;;;5077374;28;19919;-77
2022/06/16 07:32:40;;;;;;;;;;;17.00;99.90;;;;;;5087172;28;19913;-77
2022/06/16 07:35:05;;;;;;;;;;;17.10;99.90;;;;;;5076024;28;19912;-77
2022/06/16 07:37:31;;;;;;;;;;;17.10;99.90;;;;;;5071216;28;19919;-77
2022/06/16 07:39:56;;;;;;;;;;;17.20;99.90;;;;;;5076883;28;20355;-77
2022/06/16 07:42:22;;;;;;;;;;;17.20;99.90;;;;;;5075121;28;20372;-77
2022/06/16 07:44:48;;;;;;;;;;;17.30;99.90;;;;;;5075391;28;19912;-76
2022/06/16 07:47:13;;;;;;;;;;;17.30;99.90;;;;;;5075393;28;19917;-77
2022/06/16 07:49:39;;;;;;;;;;;17.50;99.90;;;;;;5068719;28;19944;-78
2022/06/16 07:52:05;;;;;;;;;;;17.70;99.90;;;;;;5057786;28;19934;-75
2022/06/16 07:54:30;;;;;;;;;;;17.80;99.90;;;;;;5075256;28;19909;-78
2022/06/16 07:56:56;;;;;;;;;;;18.00;99.90;;;;;;5075278;28;20266;-78
2022/06/16 07:59:22;;;;;;;;;;;18.30;99.90;;;;;;5054625;28;19912;-77
2022/06/16 08:01:47;;;;;;;;;;;18.50;99.90;;;;;;5094172;28;19955;-78
2022/06/16 08:04:13;;;;;;;;;;;18.70;99.90;;;;;;5095612;28;19923;-79
2022/06/16 08:06:38;;;;;;;;;;;19.00;99.90;;;;;;5065199;28;20318;-80
2022/06/16 08:09:05;;;;;;;;;;;19.30;99.90;;;;;;5091321;28;19961;-78
2022/06/16 08:14:15;;;;;;;;;;;19.60;98.80;;;;;;5073523;28;19985;-77
2022/06/16 08:16:42;;;;;;;;;;;19.90;99.30;;;;;;4983404;28;19916;-75
2022/06/16 08:19:07;;;;;;;;;;;20.30;99.90;;;;;;4998134;28;19916;-74
2022/06/16 08:21:33;;;;;;;;;;;20.90;97.50;;;;;;4998594;28;19927;-77
2022/06/16 08:23:59;;;;;;;;;;;21.00;96.20;;;;;;4983532;28;20793;-76
2022/06/16 08:26:24;;;;;;;;;;;21.20;97.70;;;;;;4983768;28;19916;-73
2022/06/16 08:28:51;;;;;;;;;;;21.40;96.50;;;;;;5000110;28;24417;-76
2022/06/16 08:31:20;;;;;;;;;;;21.50;94.70;;;;;;4998568;28;19920;-74
2022/06/16 08:33:46;;;;;;;;;;;21.70;95.30;;;;;;5025418;28;20303;-74
2022/06/16 08:36:12;;;;;;;;;;;21.90;95.00;;;;;;5080272;28;19908;-74
2022/06/16 08:38:37;;;;;;;;;;;22.10;95.10;;;;;;5062634;28;19912;-74
2022/06/16 08:41:13;;;;;;;;;;;22.30;95.50;;;;;;5082693;28;20260;-74
2022/06/16 08:43:42;;;;;;;;;;;22.30;93.50;;;;;;5061495;28;19917;-74
2022/06/16 08:46:08;;;;;;;;;;;22.40;95.50;;;;;;5069551;28;19908;-74
2022/06/16 08:48:52;;;;;;;;;;;22.40;94.70;;;;;;5094564;28;19927;-74
2022/06/16 08:51:36;;;;;;;;;;;22.80;94.20;;;;;;5055770;28;20836;-73
2022/06/16 08:54:05;;;;;;;;;;;23.20;93.60;;;;;;5090618;28;19909;-73
2022/06/16 08:56:44;;;;;;;;;;;23.40;93.10;;;;;;5095197;28;20214;-74
2022/06/16 08:59:12;;;;;;;;;;;23.40;94.00;;;;;;5092434;28;19995;-75
2022/06/16 09:01:50;;;;;;;;;;;23.70;92.80;;;;;;5080895;28;19924;-74
2022/06/16 09:04:20;;;;;;;;;;;23.50;92.80;;;;;;5079933;28;19920;-74
2022/06/16 09:07:04;;;;;;;;;;;23.60;92.60;;;;;;5083429;28;20338;-74
2022/06/16 09:12:37;;;;;;;;;;;24.10;91.90;;;;;;5089163;28;21416;-73
2022/06/16 09:15:13;;;;;;;;;;;24.30;92.10;;;;;;5080872;28;19979;-74
2022/06/16 09:17:45;;;;;;;;;;;24.30;93.10;;;;;;5073040;28;19912;-74
2022/06/16 09:20:28;;;;;;;;;;;24.40;92.10;;;;;;5072573;28;20013;-73
2022/06/16 09:23:08;;;;;;;;;;;24.40;92.90;;;;;;5083017;28;20328;-74
2022/06/16 09:25:43;;;;;;;;;;;24.50;91.40;;;;;;5034322;28;19923;-74
2022/06/16 09:28:12;;;;;;;;;;;24.60;90.50;;;;;;5077470;28;20321;-75
2022/06/16 09:30:39;;;;;;;;;;;24.90;91.30;;;;;;5086697;28;19919;-74
2022/06/16 09:33:11;;;;;;;;;;;25.20;91.30;;;;;;5078275;28;20611;-74
2022/06/16 09:35:36;;;;;;;;;;;25.50;90.30;;;;;;5069328;28;19919;-74
2022/06/16 09:38:25;;;;;;;;;;;25.70;91.10;;;;;;5095422;28;19908;-75
2022/06/16 09:40:58;;;;;;;;;;;25.70;91.40;;;;;;5055460;28;19920;-75
2022/06/16 09:43:37;;;;;;;;;;;25.30;91.30;;;;;;5075874;28;20005;-74
2022/06/16 09:46:21;;;;;;;;;;;25.80;91.40;;;;;;5072720;28;19932;-74
2022/06/16 09:48:57;;;;;;;;;;;26.10;91.40;;;;;;5061550;28;20436;-74
2022/06/16 09:51:35;;;;;;;;;;;26.50;90.90;;;;;;5090433;28;19961;-74
2022/06/16 09:54:04;;;;;;;;;;;26.20;88.10;;;;;;5089346;28;19963;-75
2022/06/16 09:56:33;;;;;;;;;;;25.90;89.00;;;;;;5094331;28;20696;-74
2022/06/16 09:59:03;;;;;;;;;;;26.10;90.60;;;;;;5094594;28;19912;-74
2022/06/16 10:01:30;;;;;;;;;;;26.30;91.80;;;;;;5094345;28;19919;-75
2022/06/16 10:03:57;;;;;;;;;;;26.50;90.70;;;;;;5088820;28;19923;-75
2022/06/16 10:06:26;;;;;;;;;;;27.00;90.90;;;;;;5094565;28;19974;-74
2022/06/16 10:08:58;;;;;;;;;;;26.80;89.10;;;;;;5088452;28;19920;-74
2022/06/16 10:11:33;;;;;;;;;;;26.50;90.30;;;;;;5087695;28;19920;-75
2022/06/16 10:14:07;;;;;;;;;;;26.40;88.70;;;;;;5075555;28;19924;-75
2022/06/16 10:16:42;;;;;;;;;;;26.20;89.70;;;;;;5074357;28;19916;-78
2022/06/16 10:19:08;;;;;;;;;;;26.30;88.00;;;;;;5076391;28;19912;-74
2022/06/16 10:21:35;;;;;;;;;;;26.60;89.10;;;;;;5076415;28;20298;-74
2022/06/16 10:24:01;;;;;;;;;;;27.20;90.90;;;;;;5075439;28;20007;-75
2022/06/16 10:26:26;;;;;;;;;;;27.10;87.90;;;;;;5076059;28;19912;-75
2022/06/16 10:29:20;;;;;;;;;;;27.00;91.30;;;;;;5079412;28;19920;-75
2022/06/16 10:31:47;;;;;;;;;;;26.90;90.00;;;;;;5075842;28;19912;-75
2022/06/16 10:34:25;;;;;;;;;;;26.60;88.30;;;;;;5088708;28;19915;-76
2022/06/16 10:36:55;;;;;;;;;;;26.30;89.70;;;;;;5094051;28;19919;-75
2022/06/16 10:39:23;;;;;;;;;;;26.10;90.50;;;;;;5075998;28;19912;-75
2022/06/16 10:41:51;;;;;;;;;;;26.10;90.80;;;;;;5093801;28;20231;-74
2022/06/16 10:44:17;;;;;;;;;;;26.40;87.70;;;;;;5086979;28;20014;-74
2022/06/16 10:46:52;;;;;;;;;;;26.50;88.70;;;;;;5084262;28;19920;-75
2022/06/16 10:49:22;;;;;;;;;;;26.40;90.00;;;;;;5093232;28;20349;-75
2022/06/16 10:52:09;;;;;;;;;;;27.00;88.10;;;;;;5093627;28;19947;-75
2022/06/16 10:54:54;;;;;;;;;;;27.10;88.80;;;;;;5071660;28;20372;-76
2022/06/16 10:57:24;;;;;;;;;;;27.40;88.80;;;;;;5069164;28;19912;-75
2022/06/16 10:59:55;;;;;;;;;;;27.20;90.00;;;;;;5086311;28;19912;-75
2022/06/16 11:02:25;;;;;;;;;;;27.00;88.30;;;;;;5081533;28;20218;-75
2022/06/16 11:04:59;;;;;;;;;;;26.90;87.50;;;;;;5086139;28;19958;-76
2022/06/16 11:07:26;;;;;;;;;;;26.80;90.50;;;;;;5088519;28;20334;-76
2022/06/16 11:09:59;;;;;;;;;;;27.10;90.40;;;;;;5034295;28;19943;-77
2022/06/16 11:12:25;;;;;;;;;;;26.40;90.90;;;;;;5085083;28;19923;-75
2022/06/16 11:14:55;;;;;;;;;;;26.60;90.20;;;;;;5080917;28;20003;-77
2022/06/16 11:17:23;;;;;;;;;;;26.40;87.80;;;;;;4982466;28;20054;-76
2022/06/16 11:19:51;;;;;;;;;;;26.50;86.50;;;;;;4977950;28;19920;-75
2022/06/16 11:22:16;;;;;;;;;;;26.30;87.40;;;;;;4979525;28;19961;-76
2022/06/16 11:24:52;;;;;;;;;;;26.10;87.20;;;;;;4963964;28;20275;-76
2022/06/16 11:27:18;;;;;;;;;;;26.60;87.90;;;;;;4979297;28;20716;-75
2022/06/16 11:29:43;;;;;;;;;;;26.60;87.70;;;;;;4981379;28;19921;-77
2022/06/16 11:32:11;;;;;;;;;;;26.50;87.60;;;;;;4988950;28;20311;-75
2022/06/16 11:34:38;;;;;;;;;;;26.40;88.60;;;;;;4961334;28;20001;-77
2022/06/16 11:37:07;;;;;;;;;;;26.30;88.20;;;;;;4980485;28;21377;-75
2022/06/16 11:39:51;;;;;;;;;;;25.80;89.40;;;;;;4977657;28;19938;-77
2022/06/16 11:42:20;;;;;;;;;;;25.30;90.30;;;;;;4979699;28;19943;-77
2022/06/16 11:44:45;;;;;;;;;;;25.70;91.50;;;;;;4973692;28;19917;-77
2022/06/16 11:47:28;;;;;;;;;;;25.40;88.80;;;;;;4972516;28;20011;-75
2022/06/16 11:50:04;;;;;;;;;;;25.10;90.40;;;;;;4979931;28;19931;-74
2022/06/16 11:52:30;;;;;;;;;;;25.40;90.20;;;;;;4974465;28;19938;-76
2022/06/16 11:55:19;;;;;;;;;;;25.90;89.10;;;;;;4959394;28;19916;-75
2022/06/16 11:57:50;;;;;;;;;;;25.70;89.30;;;;;;4978301;28;19921;-76
2022/06/16 12:00:16;;;;;;;;;;;25.70;88.20;;;;;;4975754;28;20011;-76
2022/06/16 12:02:41;;;;;;;;;;;25.50;89.50;;;;;;4956617;28;19923;-76
2022/06/16 12:05:10;;;;;;;;;;;25.50;87.60;;;;;;4958080;28;19923;-76
2022/06/16 12:07:36;;;;;;;;;;;25.30;90.20;;;;;;4977776;28;23912;-77
2022/06/16 12:10:17;;;;;;;;;;;25.30;90.20;;;;;;4960611;28;20499;-76
2022/06/16 12:12:48;;;;;;;;;;;25.40;90.60;;;;;;4974413;28;20516;-76
2022/06/16 12:15:23;;;;;;;;;;;25.30;89.30;;;;;;4980994;28;20014;-76
2022/06/16 12:18:04;;;;;;;;;;;25.50;90.50;;;;;;5014849;28;19995;-76
2022/06/16 12:20:35;;;;;;;;;;;25.40;88.60;;;;;;5073301;28;19912;-76
2022/06/16 12:23:09;;;;;;;;;;;25.50;89.80;;;;;;5090964;28;19957;-78
2022/06/16 12:25:53;;;;;;;;;;;25.30;87.70;;;;;;5074911;28;19919;-76
2022/06/16 12:28:31;;;;;;;;;;;25.30;89.60;;;;;;5074022;28;19916;-81
2022/06/16 12:31:08;;;;;;;;;;;25.30;90.50;;;;;;5083125;28;20370;-75
2022/06/16 12:33:45;;;;;;;;;;;25.10;88.00;;;;;;5091683;28;20252;-75
2022/06/16 12:36:27;;;;;;;;;;;25.30;89.50;;;;;;5073208;28;20305;-79
2022/06/16 12:38:56;;;;;;;;;;;25.30;89.30;;;;;;5088716;28;19912;-76
2022/06/16 12:41:39;;;;;;;;;;;25.20;88.50;;;;;;5065983;28;19916;-77
2022/06/16 12:44:13;;;;;;;;;;;24.90;89.40;;;;;;4983770;28;19921;-77
2022/06/16 12:46:51;;;;;;;;;;;25.10;88.20;;;;;;4975602;28;19916;-76
2022/06/16 12:49:19;;;;;;;;;;;25.10;90.80;;;;;;4959340;28;19930;-75
2022/06/16 12:51:49;;;;;;;;;;;25.10;90.10;;;;;;4974770;28;19920;-76
2022/06/16 12:54:20;;;;;;;;;;;25.00;88.40;;;;;;4974713;28;19983;-77
2022/06/16 12:56:49;;;;;;;;;;;25.00;89.30;;;;;;4962572;28;19916;-77
2022/06/16 12:59:17;;;;;;;;;;;25.20;89.60;;;;;;4977241;28;19916;-77
2022/06/16 13:01:45;;;;;;;;;;;25.30;90.40;;;;;;4971526;28;19970;-78
2022/06/16 13:04:12;;;;;;;;;;;25.00;89.20;;;;;;4976446;28;20668;-75
2022/06/16 13:06:40;;;;;;;;;;;25.00;90.10;;;;;;4973500;28;19954;-78
2022/06/16 13:09:11;;;;;;;;;;;25.10;89.10;;;;;;4979233;28;20499;-76
2022/06/16 13:11:49;;;;;;;;;;;25.20;89.90;;;;;;4993253;28;19958;-78
2022/06/16 13:14:34;;;;;;;;;;;25.00;90.00;;;;;;5082413;28;19924;-81
2022/06/16 13:17:02;;;;;;;;;;;25.30;89.30;;;;;;5082348;28;19920;-81
2022/06/16 13:19:32;;;;;;;;;;;25.20;89.40;;;;;;5065804;28;19916;-78
2022/06/16 13:22:01;;;;;;;;;;;25.30;89.70;;;;;;5070968;28;19916;-78
2022/06/16 13:24:38;;;;;;;;;;;25.50;89.30;;;;;;5072138;28;19916;-79
2022/06/16 13:27:06;;;;;;;;;;;25.50;88.60;;;;;;5088558;28;19956;-78
2022/06/16 13:30:08;;;;;;;;;;;25.50;87.00;;;;;;5066061;28;19968;-77
2022/06/16 13:32:33;;;;;;;;;;;25.70;90.10;;;;;;4993679;28;20329;-79
2022/06/16 13:35:00;;;;;;;;;;;25.70;89.20;;;;;;4988710;28;19921;-84
2022/06/16 13:37:25;;;;;;;;;;;25.70;90.00;;;;;;4999841;28;19972;-77
2022/06/16 13:39:51;;;;;;;;;;;25.70;90.00;;;;;;5008719;28;19956;-82
2022/06/16 13:42:18;;;;;;;;;;;26.00;90.80;;;;;;5000944;28;19921;-77
2022/06/16 13:45:02;;;;;;;;;;;26.00;89.60;;;;;;5003070;28;19928;-76
2022/06/16 13:47:27;;;;;;;;;;;26.30;90.20;;;;;;5007520;28;19976;-78
2022/06/16 13:49:55;;;;;;;;;;;26.40;90.50;;;;;;4992680;28;20336;-79
2022/06/16 13:52:25;;;;;;;;;;;26.40;88.60;;;;;;5010257;28;19917;-76
2022/06/16 13:54:50;;;;;;;;;;;26.30;89.10;;;;;;4981621;28;19914;-79
2022/06/16 13:57:19;;;;;;;;;;;26.30;89.40;;;;;;5009498;28;20016;-79
2022/06/16 13:59:45;;;;;;;;;;;26.30;90.80;;;;;;4984570;28;19936;-78
2022/06/16 14:02:18;;;;;;;;;;;26.30;89.80;;;;;;5010515;28;19913;-77
2022/06/16 14:05:00;;;;;;;;;;;26.50;89.50;;;;;;5001050;28;19940;-78
2022/06/16 14:07:27;;;;;;;;;;;26.70;89.10;;;;;;5048239;28;19912;-77
2022/06/16 14:10:00;;;;;;;;;;;26.70;88.30;;;;;;5068340;28;19923;-77
2022/06/16 14:12:48;;;;;;;;;;;26.70;89.10;;;;;;5050400;28;19955;-78
2022/06/16 14:15:14;;;;;;;;;;;26.80;90.70;;;;;;5092289;28;19920;-82
2022/06/16 14:17:43;;;;;;;;;;;26.80;89.80;;;;;;5076236;28;19912;-77
2022/06/16 14:20:17;;;;;;;;;;;26.70;86.80;;;;;;5091978;28;20277;-76
2022/06/16 14:22:46;;;;;;;;;;;26.60;88.10;;;;;;5086003;28;20076;-76
2022/06/16 14:25:23;;;;;;;;;;;26.80;88.90;;;;;;5072244;28;19916;-77
2022/06/16 14:27:49;;;;;;;;;;;26.90;90.10;;;;;;5075900;28;20311;-77
2022/06/16 14:30:19;;;;;;;;;;;26.60;87.50;;;;;;5032904;28;20323;-76
2022/06/16 14:32:49;;;;;;;;;;;26.80;88.30;;;;;;4997851;28;19924;-77
2022/06/16 14:35:37;;;;;;;;;;;26.90;90.00;;;;;;4962082;28;20530;-77
2022/06/16 14:38:08;;;;;;;;;;;26.90;87.20;;;;;;4983028;28;19931;-76
2022/06/16 14:40:37;;;;;;;;;;;26.70;88.80;;;;;;4995564;28;19916;-76
2022/06/16 14:43:07;;;;;;;;;;;26.70;87.40;;;;;;4997993;28;19916;-75
2022/06/16 14:45:35;;;;;;;;;;;26.70;86.60;;;;;;5043992;28;20042;-77
2022/06/16 14:48:06;;;;;;;;;;;27.10;88.60;;;;;;5070871;28;19927;-76
2022/06/16 14:50:38;;;;;;;;;;;26.90;87.80;;;;;;5091890;28;19923;-76